createdAt,value
2019-01-02T00:00:33.786Z,89.70
2019-01-02T00:03:02.906Z,90.20
2019-01-02T00:05:32.274Z,90.00
2019-01-02T00:08:01.390Z,90.10
2019-01-02T00:10:30.760Z,90.40
2019-01-02T00:12:59.873Z,90.40
2019-01-02T00:15:29.248Z,90.60
2019-01-02T00:17:58.357Z,90.70
2019-01-02T00:20:27.449Z,91.00
2019-01-02T00:22:56.563Z,90.70
2019-01-02T00:25:25.658Z,90.60
2019-01-02T00:27:55.154Z,90.60
2019-01-02T00:30:24.252Z,90.60
2019-01-02T00:32:53.546Z,90.90
2019-01-02T00:35:42.068Z,90.80
2019-01-02T00:38:11.188Z,90.70
2019-01-02T00:40:40.285Z,90.70
2019-01-02T00:43:09.406Z,90.80
2019-01-02T00:45:38.502Z,90.80
2019-01-02T00:48:07.619Z,91.00
2019-01-02T00:50:37.091Z,90.80
2019-01-02T00:53:06.207Z,90.90
2019-01-02T00:55:35.675Z,91.10
2019-01-02T00:58:04.792Z,91.20
2019-01-02T01:00:34.257Z,91.20
2019-01-02T01:03:03.374Z,91.30
2019-01-02T01:05:32.467Z,91.20
2019-01-02T01:08:01.581Z,91.10
2019-01-02T01:10:30.674Z,91.10
2019-01-02T01:12:59.787Z,91.30
2019-01-02T01:15:28.881Z,91.30
2019-01-02T01:17:57.999Z,91.30
2019-01-02T01:20:27.096Z,91.20
2019-01-02T01:22:56.208Z,91.10
2019-01-02T01:25:25.712Z,91.00
2019-01-02T01:27:54.824Z,91.00
2019-01-02T01:30:23.916Z,91.00
2019-01-02T01:32:53.029Z,91.00
2019-01-02T01:35:22.122Z,91.20
2019-01-02T01:37:51.520Z,90.80
2019-01-02T01:40:20.610Z,90.80
2019-01-02T01:42:49.722Z,90.60
2019-01-02T01:45:19.096Z,90.70
2019-01-02T01:47:48.513Z,90.80
2019-01-02T01:50:18.261Z,90.70
2019-01-02T01:52:47.379Z,90.90
2019-01-02T01:55:16.497Z,90.90
2019-01-02T01:57:45.899Z,90.40
2019-01-02T02:00:17.308Z,90.40
2019-01-02T02:02:46.420Z,90.70
2019-01-02T02:05:15.515Z,90.80
2019-01-02T02:07:44.629Z,90.70
2019-01-02T02:10:16.320Z,90.60
2019-01-02T02:12:45.451Z,90.80
2019-01-02T02:15:14.545Z,90.70
2019-01-02T02:17:43.942Z,90.40
2019-01-02T02:20:13.987Z,90.30
2019-01-02T02:22:43.116Z,90.10
2019-01-02T02:25:31.644Z,90.00
2019-01-02T02:28:00.759Z,89.80
2019-01-02T02:30:29.925Z,90.10
2019-01-02T02:32:59.053Z,90.00
2019-01-02T02:35:28.141Z,90.20
2019-01-02T02:37:57.914Z,89.60
2019-01-02T02:40:27.008Z,89.80
2019-01-02T02:42:56.123Z,89.50
2019-01-02T02:45:26.064Z,89.80
2019-01-02T02:47:55.565Z,89.70
2019-01-02T02:50:25.144Z,89.40
2019-01-02T02:52:54.513Z,89.80
2019-01-02T02:55:23.912Z,89.60
2019-01-02T02:57:53.057Z,89.70
2019-01-02T03:00:22.172Z,89.40
2019-01-02T03:02:51.273Z,89.00
2019-01-02T03:05:20.401Z,89.00
2019-01-02T03:07:49.503Z,89.00
2019-01-02T03:10:18.993Z,88.40
2019-01-02T03:12:48.467Z,88.50
2019-01-02T03:15:17.967Z,88.70
2019-01-02T03:17:47.061Z,88.00
2019-01-02T03:20:16.641Z,87.40
2019-01-02T03:22:45.819Z,87.50
2019-01-02T03:25:15.375Z,87.70
2019-01-02T03:27:44.956Z,87.20
2019-01-02T03:30:17.282Z,87.20
2019-01-02T03:32:46.738Z,87.10
2019-01-02T03:35:16.338Z,86.90
2019-01-02T03:37:45.537Z,86.80
2019-01-02T03:40:14.656Z,87.20
2019-01-02T03:42:43.757Z,86.60
2019-01-02T03:45:18.552Z,86.00
2019-01-02T03:47:47.645Z,86.20
2019-01-02T03:50:19.278Z,86.20
2019-01-02T03:52:48.376Z,86.90
2019-01-02T03:55:17.500Z,87.90
2019-01-02T03:57:46.597Z,88.50
2019-01-02T04:00:18.923Z,89.70
2019-01-02T04:02:48.019Z,90.00
2019-01-02T04:05:21.144Z,90.40
2019-01-02T04:07:55.400Z,90.40
2019-01-02T04:10:24.519Z,90.90
2019-01-02T04:12:53.626Z,90.90
2019-01-02T04:15:22.735Z,90.80
2019-01-02T04:17:51.834Z,90.90
2019-01-02T04:20:20.949Z,90.90
2019-01-02T04:22:50.057Z,90.80
2019-01-02T04:25:19.176Z,90.50
2019-01-02T04:27:48.265Z,90.60
2019-01-02T04:30:17.380Z,90.10
2019-01-02T04:32:46.469Z,89.60
2019-01-02T04:35:15.587Z,88.50
2019-01-02T04:37:44.682Z,87.40
2019-01-02T04:40:14.262Z,85.30
2019-01-02T04:42:43.357Z,85.20
2019-01-02T04:45:12.474Z,83.70
2019-01-02T04:47:41.646Z,84.60
2019-01-02T04:50:15.018Z,81.80
2019-01-02T04:52:44.116Z,81.70
2019-01-02T04:55:13.240Z,80.30
2019-01-02T04:57:42.340Z,78.50
2019-01-02T05:00:35.580Z,78.80
2019-01-02T05:03:04.676Z,78.70
2019-01-02T05:05:33.795Z,78.80
2019-01-02T05:08:02.888Z,79.20
2019-01-02T05:10:32.011Z,79.90
2019-01-02T05:13:01.108Z,80.50
2019-01-02T05:15:30.229Z,81.10
2019-01-02T05:17:59.326Z,81.80
2019-01-02T05:20:28.449Z,82.50
2019-01-02T05:22:57.538Z,83.20
2019-01-02T05:25:26.649Z,82.80
2019-01-02T05:27:55.748Z,83.00
2019-01-02T05:30:24.875Z,83.70
2019-01-02T05:32:53.962Z,83.00
2019-01-02T05:35:23.081Z,83.50
2019-01-02T05:37:52.176Z,83.70
2019-01-02T05:40:21.296Z,84.30
2019-01-02T05:42:50.397Z,84.50
2019-01-02T05:45:19.515Z,83.60
2019-01-02T05:47:48.611Z,83.60
2019-01-02T05:50:17.709Z,84.10
2019-01-02T05:52:46.832Z,83.90
2019-01-02T05:55:15.934Z,84.10
2019-01-02T05:57:45.043Z,83.40
2019-01-02T06:00:14.782Z,84.10
2019-01-02T06:02:43.900Z,84.00
2019-01-02T06:05:13.005Z,84.60
2019-01-02T06:07:42.116Z,83.00
2019-01-02T06:10:13.015Z,84.00
2019-01-02T06:12:42.132Z,84.30
2019-01-02T06:15:13.533Z,84.00
2019-01-02T06:17:42.648Z,84.60
2019-01-02T06:20:14.748Z,84.90
2019-01-02T06:22:43.871Z,84.40
2019-01-02T06:25:12.978Z,84.40
2019-01-02T06:27:42.091Z,84.10
2019-01-02T06:30:12.517Z,83.60
2019-01-02T06:32:41.641Z,84.40
2019-01-02T06:35:10.797Z,84.00
2019-01-02T06:37:39.917Z,83.90
2019-01-02T06:40:11.030Z,83.80
2019-01-02T06:42:40.149Z,83.60
2019-01-02T06:45:12.051Z,83.40
2019-01-02T06:47:41.168Z,83.00
2019-01-02T06:50:20.303Z,82.50
2019-01-02T06:52:49.421Z,81.90
2019-01-02T06:55:18.519Z,80.90
2019-01-02T06:57:47.645Z,81.20
2019-01-02T07:00:21.572Z,81.30
2019-01-02T07:02:50.697Z,80.70
2019-01-02T07:05:19.802Z,80.50
2019-01-02T07:07:48.909Z,79.10
2019-01-02T07:10:19.209Z,79.20
2019-01-02T07:12:48.509Z,78.50
2019-01-02T07:15:17.605Z,78.20
2019-01-02T07:17:46.720Z,78.50
2019-01-02T07:20:15.815Z,77.70
2019-01-02T07:22:44.938Z,78.60
2019-01-02T07:25:14.038Z,78.20
2019-01-02T07:27:43.155Z,77.40
2019-01-02T07:30:19.569Z,79.40
2019-01-02T07:32:48.819Z,78.60
2019-01-02T07:35:37.819Z,78.20
2019-01-02T07:38:29.954Z,78.60
2019-01-02T07:41:18.139Z,78.60
2019-01-02T07:44:42.058Z,79.40
2019-01-02T07:47:50.135Z,79.90
2019-01-02T07:50:45.021Z,79.20
2019-01-02T07:53:48.570Z,78.60
2019-01-02T07:56:39.832Z,78.20
2019-01-02T07:59:31.640Z,79.80
2019-01-02T08:02:34.572Z,80.50
2019-01-02T08:05:33.438Z,82.80
2019-01-02T08:08:25.474Z,83.20
2019-01-02T08:11:17.396Z,82.40
2019-01-02T08:14:25.879Z,82.10
2019-01-02T08:17:08.959Z,79.70
2019-01-02T08:19:51.442Z,80.00
2019-01-02T08:22:52.645Z,81.20
2019-01-02T08:25:50.327Z,81.10
2019-01-02T08:28:45.353Z,79.80
2019-01-02T08:31:39.418Z,80.70
2019-01-02T08:34:43.495Z,80.40
2019-01-02T08:38:06.012Z,79.80
2019-01-02T08:41:15.243Z,79.30
2019-01-02T08:44:08.746Z,78.60
2019-01-02T08:46:57.650Z,76.60
2019-01-02T08:49:46.690Z,77.50
2019-01-02T08:52:35.423Z,76.30
2019-01-02T08:55:38.224Z,75.90
2019-01-02T08:58:41.556Z,75.40
2019-01-02T09:01:45.372Z,73.30
2019-01-02T09:04:40.246Z,73.20
2019-01-02T09:07:32.030Z,72.50
2019-01-02T09:10:20.956Z,71.50
2019-01-02T09:13:23.778Z,71.20
2019-01-02T09:16:41.739Z,69.30
2019-01-02T09:19:41.169Z,69.70
2019-01-02T09:22:20.749Z,70.00
2019-01-02T09:25:27.328Z,68.40
2019-01-02T09:28:19.938Z,69.60
2019-01-02T09:31:08.261Z,69.80
2019-01-02T09:33:58.938Z,71.60
2019-01-02T09:37:13.734Z,72.30
2019-01-02T09:39:47.747Z,76.00
2019-01-02T09:42:55.791Z,79.90
2019-01-02T09:46:04.747Z,81.90
2019-01-02T09:49:18.171Z,83.90
2019-01-02T09:52:22.247Z,84.50
2019-01-02T09:55:22.082Z,86.00
2019-01-02T09:58:22.663Z,86.70
2019-01-02T10:01:16.424Z,87.50
2019-01-02T10:04:28.392Z,86.30
2019-01-02T10:07:25.096Z,86.70
2019-01-02T10:10:33.965Z,86.90
2019-01-02T10:13:32.428Z,86.50
2019-01-02T10:16:15.131Z,86.80
2019-01-02T10:18:57.290Z,85.80
2019-01-02T10:21:35.328Z,85.50
2019-01-02T10:24:47.298Z,85.60
2019-01-02T10:27:21.301Z,83.80
2019-01-02T10:30:19.269Z,81.40
2019-01-02T10:33:08.339Z,82.30
2019-01-02T10:36:19.524Z,80.30
2019-01-02T10:39:31.534Z,79.60
2019-01-02T10:42:35.129Z,75.20
2019-01-02T10:45:58.825Z,74.90
2019-01-02T10:49:08.420Z,74.00
2019-01-02T10:52:24.882Z,72.30
2019-01-02T10:54:59.039Z,74.60
2019-01-02T10:57:56.992Z,75.30
2019-01-02T11:01:03.989Z,75.10
2019-01-02T11:04:10.253Z,77.10
2019-01-02T11:07:02.092Z,78.40
2019-01-02T11:10:09.179Z,79.90
2019-01-02T11:13:02.901Z,81.50
2019-01-02T11:15:45.915Z,82.70
2019-01-02T11:18:39.429Z,81.00
2019-01-02T11:21:25.448Z,82.70
2019-01-02T11:24:17.272Z,81.20
2019-01-02T11:27:10.109Z,80.40
2019-01-02T11:30:32.660Z,77.70
2019-01-02T11:33:54.421Z,76.70
2019-01-02T11:36:53.188Z,71.90
2019-01-02T11:39:44.290Z,66.20
2019-01-02T11:42:47.616Z,63.80
2019-01-02T11:45:17.180Z,63.80
2019-01-02T11:47:46.706Z,65.90
2019-01-02T11:50:15.920Z,67.50
2019-01-02T11:52:45.069Z,64.20
2019-01-02T11:55:14.379Z,62.20
2019-01-02T11:57:43.467Z,61.10
2019-01-02T12:00:14.367Z,61.90
2019-01-02T12:02:43.596Z,61.80
2019-01-02T12:05:12.699Z,59.80
2019-01-02T12:07:41.824Z,59.80
2019-01-02T12:10:11.966Z,57.50
2019-01-02T12:12:41.116Z,55.90
2019-01-02T12:15:10.794Z,54.80
2019-01-02T12:17:39.891Z,56.40
2019-01-02T12:20:10.635Z,53.40
2019-01-02T12:22:39.729Z,54.20
2019-01-02T12:25:08.947Z,55.50
2019-01-02T12:27:38.129Z,53.20
2019-01-02T12:30:12.471Z,52.90
2019-01-02T12:32:41.623Z,51.70
2019-01-02T12:35:30.718Z,51.90
2019-01-02T12:37:59.815Z,51.80
2019-01-02T12:40:48.444Z,53.70
2019-01-02T12:43:17.585Z,54.40
2019-01-02T12:45:46.712Z,52.00
2019-01-02T12:48:15.853Z,52.80
2019-01-02T12:50:45.008Z,51.20
2019-01-02T12:53:14.104Z,51.80
2019-01-02T12:55:43.236Z,52.10
2019-01-02T12:58:12.331Z,51.90
2019-01-02T13:00:46.359Z,53.90
2019-01-02T13:03:50.482Z,54.20
2019-01-02T13:07:07.017Z,54.90
2019-01-02T13:09:43.458Z,55.80
2019-01-02T13:12:25.755Z,55.70
2019-01-02T13:15:19.143Z,56.40
2019-01-02T13:18:01.602Z,55.20
2019-01-02T13:20:53.782Z,55.60
2019-01-02T13:23:45.735Z,54.20
2019-01-02T13:26:25.457Z,53.80
2019-01-02T13:29:16.909Z,56.90
2019-01-02T13:31:56.894Z,56.50
2019-01-02T13:35:03.677Z,56.50
2019-01-02T13:38:11.016Z,56.90
2019-01-02T13:41:27.814Z,54.70
2019-01-02T13:44:16.671Z,56.30
2019-01-02T13:47:09.988Z,57.00
2019-01-02T13:50:04.756Z,55.80
2019-01-02T13:52:33.987Z,56.20
2019-01-02T13:55:05.901Z,56.80
2019-01-02T13:57:36.006Z,58.30
2019-01-02T14:00:09.460Z,58.30
2019-01-02T14:02:38.755Z,57.10
2019-01-02T14:05:15.740Z,55.60
2019-01-02T14:07:44.887Z,56.40
2019-01-02T14:10:14.060Z,57.50
2019-01-02T14:12:43.385Z,57.40
2019-01-02T14:15:12.964Z,58.70
2019-01-02T14:17:42.140Z,57.40
2019-01-02T14:20:11.235Z,59.10
2019-01-02T14:22:40.511Z,58.80
2019-01-02T14:25:09.593Z,59.10
2019-01-02T14:27:38.710Z,60.60
2019-01-02T14:30:09.804Z,61.50
2019-01-02T14:32:39.020Z,62.90
2019-01-02T14:35:29.134Z,63.00
2019-01-02T14:37:58.259Z,68.00
2019-01-02T14:40:27.380Z,70.00
2019-01-02T14:42:56.496Z,72.00
2019-01-02T14:45:25.650Z,70.40
2019-01-02T14:47:54.778Z,69.50
2019-01-02T14:50:23.907Z,67.40
2019-01-02T14:52:53.024Z,67.40
2019-01-02T14:55:22.191Z,68.70
2019-01-02T14:57:51.344Z,68.10
2019-01-02T15:00:20.505Z,67.00
2019-01-02T15:02:49.663Z,67.00
2019-01-02T15:05:18.909Z,68.00
2019-01-02T15:07:48.600Z,69.60
2019-01-02T15:10:17.799Z,69.50
2019-01-02T15:12:46.922Z,69.40
2019-01-02T15:15:16.020Z,65.80
2019-01-02T15:17:45.141Z,65.80
2019-01-02T15:20:14.268Z,64.20
2019-01-02T15:22:44.144Z,64.70
2019-01-02T15:25:13.280Z,61.10
2019-01-02T15:27:42.785Z,62.10
2019-01-02T15:30:12.171Z,61.90
2019-01-02T15:32:41.289Z,60.90
2019-01-02T15:35:10.461Z,61.00
2019-01-02T15:37:39.582Z,59.10
2019-01-02T15:40:10.020Z,59.40
2019-01-02T15:42:39.157Z,59.20
2019-01-02T15:45:08.414Z,60.80
2019-01-02T15:47:37.539Z,61.80
2019-01-02T15:50:10.348Z,60.20
2019-01-02T15:52:39.592Z,59.90
2019-01-02T15:55:09.143Z,58.70
2019-01-02T15:57:38.271Z,59.40
2019-01-02T16:00:11.871Z,60.60
2019-01-02T16:02:41.400Z,59.40
2019-01-02T16:05:10.496Z,60.60
2019-01-02T16:07:39.631Z,57.80
2019-01-02T16:10:09.473Z,57.00
2019-01-02T16:12:38.595Z,57.60
2019-01-02T16:15:08.339Z,56.40
2019-01-02T16:17:37.464Z,54.70
2019-01-02T16:20:08.973Z,54.90
2019-01-02T16:22:38.099Z,54.90
2019-01-02T16:25:08.356Z,53.40
2019-01-02T16:27:37.493Z,54.70
2019-01-02T16:30:08.981Z,53.10
2019-01-02T16:32:38.477Z,53.10
2019-01-02T16:35:07.851Z,54.50
2019-01-02T16:37:36.984Z,54.30
2019-01-02T16:40:10.519Z,54.00
2019-01-02T16:42:39.664Z,54.30
2019-01-02T16:45:09.540Z,53.10
2019-01-02T16:47:38.736Z,55.00
2019-01-02T16:50:09.283Z,56.30
2019-01-02T16:52:38.464Z,55.70
2019-01-02T16:55:07.558Z,54.70
2019-01-02T16:57:36.676Z,54.50
2019-01-02T17:00:10.478Z,54.70
2019-01-02T17:02:39.600Z,55.60
2019-01-02T17:05:08.735Z,54.70
2019-01-02T17:07:38.789Z,55.80
2019-01-02T17:10:11.183Z,56.00
2019-01-02T17:12:40.349Z,56.20
2019-01-02T17:15:09.459Z,56.10
2019-01-02T17:17:38.671Z,55.10
2019-01-02T17:20:09.193Z,55.60
2019-01-02T17:22:38.517Z,56.20
2019-01-02T17:25:08.744Z,57.00
2019-01-02T17:27:37.866Z,57.20
2019-01-02T17:30:08.667Z,58.20
2019-01-02T17:32:37.795Z,57.80
2019-01-02T17:35:06.883Z,59.20
2019-01-02T17:37:36.013Z,58.80
2019-01-02T17:40:07.014Z,59.30
2019-01-02T17:42:36.142Z,58.90
2019-01-02T17:45:07.452Z,60.00
2019-01-02T17:47:37.379Z,60.30
2019-01-02T17:50:09.043Z,60.60
2019-01-02T17:52:38.174Z,60.10
2019-01-02T17:55:07.278Z,60.80
2019-01-02T17:57:38.691Z,61.30
2019-01-02T18:00:10.991Z,62.20
2019-01-02T18:02:40.114Z,62.90
2019-01-02T18:05:09.280Z,62.50
2019-01-02T18:07:38.409Z,63.30
2019-01-02T18:10:08.635Z,63.70
2019-01-02T18:12:37.799Z,64.80
2019-01-02T18:15:26.403Z,65.10
2019-01-02T18:17:55.835Z,65.80
2019-01-02T18:20:25.238Z,66.10
2019-01-02T18:22:54.742Z,66.40
2019-01-02T18:25:23.878Z,67.40
2019-01-02T18:27:53.351Z,67.80
2019-01-02T18:30:22.846Z,68.50
2019-01-02T18:32:52.282Z,68.60
2019-01-02T18:35:21.852Z,68.40
2019-01-02T18:37:51.256Z,68.60
2019-01-02T18:40:21.052Z,69.00
2019-01-02T18:42:50.787Z,69.00
2019-01-02T18:45:20.279Z,69.00
2019-01-02T18:47:49.595Z,69.50
2019-01-02T18:50:19.188Z,69.70
2019-01-02T18:52:48.591Z,70.50
2019-01-02T18:55:18.104Z,71.20
2019-01-02T18:57:47.592Z,70.80
2019-01-02T19:00:17.106Z,71.10
2019-01-02T19:02:46.600Z,70.80
2019-01-02T19:05:16.099Z,71.60
2019-01-02T19:07:45.341Z,71.70
2019-01-02T19:10:15.138Z,72.50
2019-01-02T19:12:44.235Z,72.80
2019-01-02T19:15:13.847Z,73.10
2019-01-02T19:17:43.226Z,73.70
2019-01-02T19:20:12.505Z,73.30
2019-01-02T19:22:41.612Z,74.50
2019-01-02T19:25:11.138Z,74.40
2019-01-02T19:27:40.526Z,74.00
2019-01-02T19:30:30.707Z,74.60
2019-01-02T19:33:00.014Z,75.50
2019-01-02T19:35:29.747Z,75.60
2019-01-02T19:37:59.375Z,76.30
2019-01-02T19:40:29.032Z,76.10
2019-01-02T19:42:58.344Z,75.80
2019-01-02T19:45:28.004Z,75.50
2019-01-02T19:47:57.271Z,76.30
2019-01-02T19:50:26.401Z,76.70
2019-01-02T19:52:55.989Z,76.20
2019-01-02T19:55:25.708Z,76.50
2019-01-02T19:57:55.212Z,76.50
2019-01-02T20:00:24.906Z,76.50
2019-01-02T20:02:54.298Z,76.90
2019-01-02T20:05:23.986Z,76.90
2019-01-02T20:07:53.411Z,77.20
2019-01-02T20:10:23.101Z,77.20
2019-01-02T20:12:52.231Z,77.60
2019-01-02T20:15:21.698Z,78.10
2019-01-02T20:17:50.801Z,78.60
2019-01-02T20:20:20.016Z,78.20
2019-01-02T20:22:49.341Z,78.50
2019-01-02T20:25:18.476Z,78.60
2019-01-02T20:27:47.858Z,78.80
2019-01-02T20:30:17.103Z,78.40
2019-01-02T20:33:05.669Z,78.50
2019-01-02T20:35:34.791Z,78.90
2019-01-02T20:38:04.341Z,79.40
2019-01-02T20:40:33.963Z,78.90
2019-01-02T20:43:03.090Z,79.40
2019-01-02T20:45:32.191Z,79.30
2019-01-02T20:48:01.317Z,79.10
2019-01-02T20:50:30.420Z,79.40
2019-01-02T20:52:59.549Z,79.80
2019-01-02T20:55:28.658Z,79.80
2019-01-02T20:57:57.798Z,80.10
2019-01-02T21:00:26.908Z,80.20
2019-01-02T21:02:56.044Z,80.50
2019-01-02T21:05:25.151Z,80.90
2019-01-02T21:07:54.357Z,80.50
2019-01-02T21:10:23.452Z,80.40
2019-01-02T21:12:52.546Z,80.70
2019-01-02T21:15:21.677Z,80.70
2019-01-02T21:17:50.857Z,80.60
2019-01-02T21:20:19.986Z,80.80
2019-01-02T21:22:49.089Z,80.90
2019-01-02T21:25:18.221Z,81.10
2019-01-02T21:27:47.329Z,81.60
2019-01-02T21:30:16.464Z,81.70
2019-01-02T21:32:45.653Z,82.30
2019-01-02T21:35:14.796Z,82.40
2019-01-02T21:37:43.901Z,82.50
2019-01-02T21:40:13.035Z,82.50
2019-01-02T21:42:42.138Z,82.30
2019-01-02T21:45:11.268Z,82.40
2019-01-02T21:47:40.367Z,82.20
2019-01-02T21:50:09.665Z,82.20
2019-01-02T21:52:38.765Z,82.60
2019-01-02T21:55:07.898Z,82.60
2019-01-02T21:57:37.079Z,82.80
2019-01-02T22:00:11.321Z,82.50
2019-01-02T22:02:40.623Z,82.50
2019-01-02T22:05:09.837Z,82.60
2019-01-02T22:07:38.943Z,82.80
2019-01-02T22:10:09.310Z,82.90
2019-01-02T22:12:38.407Z,82.70
2019-01-02T22:15:10.342Z,83.00
2019-01-02T22:17:40.487Z,83.20
2019-01-02T22:20:09.754Z,82.70
2019-01-02T22:22:38.860Z,82.70
2019-01-02T22:25:08.042Z,82.90
2019-01-02T22:27:37.150Z,83.30
2019-01-02T22:30:07.983Z,83.30
2019-01-02T22:32:37.084Z,82.20
2019-01-02T22:35:06.645Z,82.40
2019-01-02T22:37:35.746Z,83.60
2019-01-02T22:40:06.783Z,82.70
2019-01-02T22:42:35.891Z,82.70
2019-01-02T22:45:05.091Z,83.40
2019-01-02T22:47:34.191Z,83.70
2019-01-02T22:50:03.686Z,83.60
2019-01-02T22:52:32.785Z,84.10
2019-01-02T22:55:01.921Z,84.10
2019-01-02T22:57:31.022Z,84.50
2019-01-02T23:00:00.180Z,84.40
2019-01-02T23:02:30.878Z,84.40
2019-01-02T23:05:01.644Z,84.50
2019-01-02T23:07:50.722Z,84.70
2019-01-02T23:10:24.155Z,85.10
2019-01-02T23:13:10.827Z,85.20
2019-01-02T23:15:54.020Z,85.10
2019-01-02T23:18:33.768Z,85.10
2019-01-02T23:21:22.081Z,85.10
2019-01-02T23:23:52.831Z,85.40
2019-01-02T23:26:39.942Z,86.10
2019-01-02T23:29:11.008Z,86.00
2019-01-02T23:31:47.519Z,86.50
2019-01-02T23:34:18.263Z,86.50
2019-01-02T23:37:08.459Z,86.80
2019-01-02T23:39:48.512Z,86.90
2019-01-02T23:42:35.531Z,87.00
2019-01-02T23:45:23.105Z,86.90
2019-01-02T23:47:53.862Z,87.20
2019-01-02T23:50:36.417Z,87.20
2019-01-02T23:53:22.399Z,87.40
2019-01-02T23:55:56.043Z,87.60
2019-01-02T23:58:29.750Z,87.30
